Faucett, Missouri
Current Conditions -  °F | °C
As of 7:53 AM on Sunday 21 Dec 2014 (Local Time) from KSTJ Reporting Station
Overcast Overcast  
Wind Chill: 29°   Ceiling: 1900
Heat Index: 38°   Visibility: 9mi
Dew Point: 35°   Wind: 15mph
Humidity: 89%   Direction: 170°S
Pressure: 30.01"   Gusts: NA
Location:  39.6°N, 94.8°W
Report Text: KSTJ 211353Z AUTO 17013KT 9SM OVC019 03/02 A3001 RMK AO2 SLP165 T00330017
Loading
Personal Weather Stations






























Interactive Weather Map New forecast layout! Learn more

10-Day Weather Forecast

Advertisements
Track Severe Weather on mobile